Aviation Digital Data Service (ADDS)

Output produced by METARs form (2141 UTC 16 February 2019)
found at http://www.aviationweather.gov/metar/data/
 
METAR text: KXNA 162053Z 06004KT 10SM OVC009 03/M01 A2975 RMK AO2 SLP083 T00281011 56040
Conditions at: KXNA (BENTONVILLE (NW), AR, US) observed 2053 UTC 16 February 2019
Temperature: 2.8°C (37°F)
Dewpoint: -1.1°C (30°F) [RH = 75%]
Pressure (altimeter): 29.75 inches Hg (1007.5 mb)
[Sea-level pressure: 1008.3 mb]
Winds: from the ENE (60 degrees) at 5 MPH (4 knots; 2.1 m/s)
Visibility: 10 or more miles (16+ km)
Ceiling: 900 feet AGL
Clouds: overcast cloud deck at 900 feet AGL
Weather: no significant weather observed at this time

METAR text: KXNA 161953Z VRB06KT 10SM OVC008 01/M02 A2979 RMK AO2 SLP095 T00111022
Conditions at: KXNA (BENTONVILLE (NW), AR, US) observed 1953 UTC 16 February 2019
Temperature: 1.1°C (34°F)
Dewpoint: -2.2°C (28°F) [RH = 79%]
Pressure (altimeter): 29.79 inches Hg (1008.9 mb)
[Sea-level pressure: 1009.5 mb]
Winds: variable direction winds at 7 MPH (6 knots; 3.1 m/s)
Visibility: 10 or more miles (16+ km)
Ceiling: 800 feet AGL
Clouds: overcast cloud deck at 800 feet AGL
Weather: no significant weather observed at this time

METAR text: KXNA 161853Z 12006KT 10SM OVC007 01/M03 A2983 RMK AO2 SLP112 T00061028
Conditions at: KXNA (BENTONVILLE (NW), AR, US) observed 1853 UTC 16 February 2019
Temperature: 0.6°C (33°F)
Dewpoint: -2.8°C (27°F) [RH = 78%]
Pressure (altimeter): 29.83 inches Hg (1010.2 mb)
[Sea-level pressure: 1011.2 mb]
Winds: from the ESE (120 degrees) at 7 MPH (6 knots; 3.1 m/s)
Visibility: 10 or more miles (16+ km)
Ceiling: 700 feet AGL
Clouds: overcast cloud deck at 700 feet AGL
Weather: no significant weather observed at this time

METAR text: KXNA 161753Z 08008KT 10SM OVC007 00/M03 A2987 RMK AO2 SLP126 T00001033 10000 21033 56030
Conditions at: KXNA (BENTONVILLE (NW), AR, US) observed 1753 UTC 16 February 2019
Temperature: 0.0°C (32°F)
Dewpoint: -3.3°C (26°F) [RH = 78%]
Pressure (altimeter): 29.87 inches Hg (1011.6 mb)
[Sea-level pressure: 1012.6 mb]
Winds: from the E (80 degrees) at 9 MPH (8 knots; 4.1 m/s)
Visibility: 10 or more miles (16+ km)
Ceiling: 700 feet AGL
Clouds: overcast cloud deck at 700 feet AGL
Weather: no significant weather observed at this time

METAR text: KXNA 161653Z 09009KT 10SM OVC007 M01/M04 A2990 RMK AO2 SLP135 T10111044
Conditions at: KXNA (BENTONVILLE (NW), AR, US) observed 1653 UTC 16 February 2019
Temperature: -1.1°C (30°F)
Dewpoint: -4.4°C (24°F) [RH = 78%]
Pressure (altimeter): 29.90 inches Hg (1012.6 mb)
[Sea-level pressure: 1013.5 mb]
Winds: from the E (90 degrees) at 10 MPH (9 knots; 4.6 m/s)
Visibility: 10 or more miles (16+ km)
Ceiling: 700 feet AGL
Clouds: overcast cloud deck at 700 feet AGL
Weather: no significant weather observed at this time

METAR text: KXNA 161553Z 08009KT 10SM OVC006 M02/M05 A2992 RMK AO2 SLP142 T10171050
Conditions at: KXNA (BENTONVILLE (NW), AR, US) observed 1553 UTC 16 February 2019
Temperature: -1.7°C (29°F)
Dewpoint: -5.0°C (23°F) [RH = 78%]
Pressure (altimeter): 29.92 inches Hg (1013.3 mb)
[Sea-level pressure: 1014.2 mb]
Winds: from the E (80 degrees) at 10 MPH (9 knots; 4.6 m/s)
Visibility: 10 or more miles (16+ km)
Ceiling: 600 feet AGL
Clouds: overcast cloud deck at 600 feet AGL
Weather: no significant weather observed at this time

METAR text: KXNA 161453Z 08006KT 10SM OVC006 M02/M05 A2997 RMK AO2 SLP156 T10171050 56001
Conditions at: KXNA (BENTONVILLE (NW), AR, US) observed 1453 UTC 16 February 2019
Temperature: -1.7°C (29°F)
Dewpoint: -5.0°C (23°F) [RH = 78%]
Pressure (altimeter): 29.97 inches Hg (1015.0 mb)
[Sea-level pressure: 1015.6 mb]
Winds: from the E (80 degrees) at 7 MPH (6 knots; 3.1 m/s)
Visibility: 10 or more miles (16+ km)
Ceiling: 600 feet AGL
Clouds: overcast cloud deck at 600 feet AGL
Weather: no significant weather observed at this time

METAR text: KXNA 161353Z 04008KT 8SM OVC006 M03/M06 A2997 RMK AO2 SLP157 T10281056
Conditions at: KXNA (BENTONVILLE (NW), AR, US) observed 1353 UTC 16 February 2019
Temperature: -2.8°C (27°F)
Dewpoint: -5.6°C (22°F) [RH = 81%]
Pressure (altimeter): 29.97 inches Hg (1015.0 mb)
[Sea-level pressure: 1015.7 mb]
Winds: from the NE (40 degrees) at 9 MPH (8 knots; 4.1 m/s)
Visibility: 8 miles (13 km)
Ceiling: 600 feet AGL
Clouds: overcast cloud deck at 600 feet AGL
Weather: no significant weather observed at this time

METAR text: KXNA 161253Z 05007KT 9SM OVC006 M03/M06 A2996 RMK AO2 SLP156 T10281061
Conditions at: KXNA (BENTONVILLE (NW), AR, US) observed 1253 UTC 16 February 2019
Temperature: -2.8°C (27°F)
Dewpoint: -6.1°C (21°F) [RH = 78%]
Pressure (altimeter): 29.96 inches Hg (1014.6 mb)
[Sea-level pressure: 1015.6 mb]
Winds: from the NE (50 degrees) at 8 MPH (7 knots; 3.6 m/s)
Visibility: 9 miles (14 km)
Ceiling: 600 feet AGL
Clouds: overcast cloud deck at 600 feet AGL
Weather: no significant weather observed at this time

METAR text: KXNA 161153Z 05005KT 10SM OVC006 M03/M06 A2997 RMK AO2 SLP158 70006 T10281056 11028 21044 58001
Conditions at: KXNA (BENTONVILLE (NW), AR, US) observed 1153 UTC 16 February 2019
Temperature: -2.8°C (27°F)
Dewpoint: -5.6°C (22°F) [RH = 81%]
Pressure (altimeter): 29.97 inches Hg (1015.0 mb)
[Sea-level pressure: 1015.8 mb]
Winds: from the NE (50 degrees) at 6 MPH (5 knots; 2.6 m/s)
Visibility: 10 or more miles (16+ km)
Ceiling: 600 feet AGL
Clouds: overcast cloud deck at 600 feet AGL
Weather: no significant weather observed at this time

METAR text: KXNA 161053Z AUTO 06005KT 10SM OVC007 M03/M06 A2998 RMK AO2 SLP161 T10331061
Conditions at: KXNA (BENTONVILLE (NW), AR, US) observed 1053 UTC 16 February 2019
Temperature: -3.3°C (26°F)
Dewpoint: -6.1°C (21°F) [RH = 81%]
Pressure (altimeter): 29.98 inches Hg (1015.3 mb)
[Sea-level pressure: 1016.1 mb]
Winds: from the ENE (60 degrees) at 6 MPH (5 knots; 2.6 m/s)
Visibility: 10 or more miles (16+ km)
Ceiling: 700 feet AGL
Clouds: overcast cloud deck at 700 feet AGL
Weather: automated observation with no human augmentation;
there may or may not be significant weather present at this time

METAR text: KXNA 160953Z AUTO 07006KT 10SM OVC008 M03/M07 A2997 RMK AO2 SLP156 T10331067
Conditions at: KXNA (BENTONVILLE (NW), AR, US) observed 0953 UTC 16 February 2019
Temperature: -3.3°C (26°F)
Dewpoint: -6.7°C (20°F) [RH = 77%]
Pressure (altimeter): 29.97 inches Hg (1015.0 mb)
[Sea-level pressure: 1015.6 mb]
Winds: from the ENE (70 degrees) at 7 MPH (6 knots; 3.1 m/s)
Visibility: 10 or more miles (16+ km)
Ceiling: 800 feet AGL
Clouds: overcast cloud deck at 800 feet AGL
Weather: automated observation with no human augmentation;
there may or may not be significant weather present at this time

METAR text: KXNA 160853Z AUTO 05007KT 9SM OVC006 M04/M07 A2997 RMK AO2 SLP159 T10391067 58004
Conditions at: KXNA (BENTONVILLE (NW), AR, US) observed 0853 UTC 16 February 2019
Temperature: -3.9°C (25°F)
Dewpoint: -6.7°C (20°F) [RH = 81%]
Pressure (altimeter): 29.97 inches Hg (1015.0 mb)
[Sea-level pressure: 1015.9 mb]
Winds: from the NE (50 degrees) at 8 MPH (7 knots; 3.6 m/s)
Visibility: 9 miles (14 km)
Ceiling: 600 feet AGL
Clouds: overcast cloud deck at 600 feet AGL
Weather: automated observation with no human augmentation;
there may or may not be significant weather present at this time

METAR text: KXNA 160753Z AUTO 04009KT 8SM OVC006 M04/M07 A3000 RMK AO2 SLP167 T10391067
Conditions at: KXNA (BENTONVILLE (NW), AR, US) observed 0753 UTC 16 February 2019
Temperature: -3.9°C (25°F)
Dewpoint: -6.7°C (20°F) [RH = 81%]
Pressure (altimeter): 30.00 inches Hg (1016.0 mb)
[Sea-level pressure: 1016.7 mb]
Winds: from the NE (40 degrees) at 10 MPH (9 knots; 4.6 m/s)
Visibility: 8 miles (13 km)
Ceiling: 600 feet AGL
Clouds: overcast cloud deck at 600 feet AGL
Weather: automated observation with no human augmentation;
there may or may not be significant weather present at this time

METAR text: KXNA 160653Z AUTO 02014KT 8SM OVC006 M04/M07 A2999 RMK AO2 SLP165 T10391072
Conditions at: KXNA (BENTONVILLE (NW), AR, US) observed 0653 UTC 16 February 2019
Temperature: -3.9°C (25°F)
Dewpoint: -7.2°C (19°F) [RH = 78%]
Pressure (altimeter): 29.99 inches Hg (1015.7 mb)
[Sea-level pressure: 1016.5 mb]
Winds: from the NNE (20 degrees) at 16 MPH (14 knots; 7.2 m/s)
Visibility: 8 miles (13 km)
Ceiling: 600 feet AGL
Clouds: overcast cloud deck at 600 feet AGL
Weather: automated observation with no human augmentation;
there may or may not be significant weather present at this time

METAR text: KXNA 160553Z AUTO 02011KT 8SM OVC005 M03/M06 A2999 RMK AO2 SLP163 I6001 T10331061 10000 21033 400171033 51010
Conditions at: KXNA (BENTONVILLE (NW), AR, US) observed 0553 UTC 16 February 2019
Temperature: -3.3°C (26°F)
Dewpoint: -6.1°C (21°F) [RH = 81%]
Pressure (altimeter): 29.99 inches Hg (1015.7 mb)
[Sea-level pressure: 1016.3 mb]
Winds: from the NNE (20 degrees) at 13 MPH (11 knots; 5.7 m/s)
Visibility: 8 miles (13 km)
Ceiling: 500 feet AGL
Clouds: overcast cloud deck at 500 feet AGL
Weather: automated observation with no human augmentation;
there may or may not be significant weather present at this time

METAR text: KXNA 160453Z AUTO 03009KT 4SM BR OVC006 M03/M05 A2998 RMK AO2 SLP160 I1000 T10281050
Conditions at: KXNA (BENTONVILLE (NW), AR, US) observed 0453 UTC 16 February 2019
Temperature: -2.8°C (27°F)
Dewpoint: -5.0°C (23°F) [RH = 85%]
Pressure (altimeter): 29.98 inches Hg (1015.3 mb)
[Sea-level pressure: 1016.0 mb]
Winds: from the NNE (30 degrees) at 10 MPH (9 knots; 4.6 m/s)
Visibility: 4 miles ( 6 km)
Ceiling: 600 feet AGL
Clouds: overcast cloud deck at 600 feet AGL
Weather: BR  (mist)

METAR text: KXNA 160353Z COR 01012KT 5SM BR OVC005 M02/M04 A2998 RMK AO2 SLP161 T10171044
Conditions at: KXNA (BENTONVILLE (NW), AR, US) observed 0353 UTC 16 February 2019
Temperature: -1.7°C (29°F)
Dewpoint: -4.4°C (24°F) [RH = 82%]
Pressure (altimeter): 29.98 inches Hg (1015.3 mb)
[Sea-level pressure: 1016.1 mb]
Winds: from the N (10 degrees) at 14 MPH (12 knots; 6.2 m/s)
Visibility: 5 miles ( 8 km)
Ceiling: 500 feet AGL
Clouds: overcast cloud deck at 500 feet AGL
Weather: BR  (mist)

METAR text: KXNA 160253Z 01009KT 8SM OVC005 M01/M03 A2995 RMK AO2 SLP152 I1000 I3001 T10061033 51026
Conditions at: KXNA (BENTONVILLE (NW), AR, US) observed 0253 UTC 16 February 2019
Temperature: -0.6°C (31°F)
Dewpoint: -3.3°C (26°F) [RH = 82%]
Pressure (altimeter): 29.95 inches Hg (1014.3 mb)
[Sea-level pressure: 1015.2 mb]
Winds: from the N (10 degrees) at 10 MPH (9 knots; 4.6 m/s)
Visibility: 8 miles (13 km)
Ceiling: 500 feet AGL
Clouds: overcast cloud deck at 500 feet AGL
Weather: no significant weather observed at this time

METAR text: KXNA 160153Z 04010KT 5SM BR OVC006 00/M03 A2993 RMK AO2 CIG 004V010 SLP145 I1000 T00001028
Conditions at: KXNA (BENTONVILLE (NW), AR, US) observed 0153 UTC 16 February 2019
Temperature: 0.0°C (32°F)
Dewpoint: -2.8°C (27°F) [RH = 81%]
Pressure (altimeter): 29.93 inches Hg (1013.6 mb)
[Sea-level pressure: 1014.5 mb]
Winds: from the NE (40 degrees) at 12 MPH (10 knots; 5.1 m/s)
Visibility: 5 miles ( 8 km)
Ceiling: 600 feet AGL
Clouds: overcast cloud deck at 600 feet AGL
Weather: BR  (mist)

METAR text: KXNA 160053Z 05009KT 4SM BR BKN007 OVC014 00/M03 A2990 RMK AO2 CIG 004V011 SLP133 I1001 T00001028
Conditions at: KXNA (BENTONVILLE (NW), AR, US) observed 0053 UTC 16 February 2019
Temperature: 0.0°C (32°F)
Dewpoint: -2.8°C (27°F) [RH = 81%]
Pressure (altimeter): 29.90 inches Hg (1012.6 mb)
[Sea-level pressure: 1013.3 mb]
Winds: from the NE (50 degrees) at 10 MPH (9 knots; 4.6 m/s)
Visibility: 4 miles ( 6 km)
Ceiling: 700 feet AGL
Clouds: broken clouds at 700 feet AGL
overcast cloud deck at 1400 feet AGL
Weather: BR  (mist)

METAR text: KXNA 160041Z 04007KT 4SM BR BKN007 OVC014 00/M03 A2989 RMK AO2 CIG 005V010 I1001 T00001028
Conditions at: KXNA (BENTONVILLE (NW), AR, US) observed 0041 UTC 16 February 2019
Temperature: 0.0°C (32°F)
Dewpoint: -2.8°C (27°F) [RH = 81%]
Pressure (altimeter): 29.89 inches Hg (1012.3 mb)
Winds: from the NE (40 degrees) at 8 MPH (7 knots; 3.6 m/s)
Visibility: 4 miles ( 6 km)
Ceiling: 700 feet AGL
Clouds: broken clouds at 700 feet AGL
overcast cloud deck at 1400 feet AGL
Weather: BR  (mist)

METAR text: KXNA 160027Z 04010KT 6SM BR SCT009 OVC015 00/M03 A2990 RMK AO2 I1000 T00001028
Conditions at: KXNA (BENTONVILLE (NW), AR, US) observed 0027 UTC 16 February 2019
Temperature: 0.0°C (32°F)
Dewpoint: -2.8°C (27°F) [RH = 81%]
Pressure (altimeter): 29.90 inches Hg (1012.6 mb)
Winds: from the NE (40 degrees) at 12 MPH (10 knots; 5.1 m/s)
Visibility: 6 miles (10 km)
Ceiling: 1500 feet AGL
Clouds: scattered clouds at 900 feet AGL
overcast cloud deck at 1500 feet AGL
Weather: BR  (mist)

METAR text: KXNA 160017Z 05011KT 7SM BR BKN010 OVC013 00/M03 A2989 RMK AO2 CIG 007V012 I1000 T00001033
Conditions at: KXNA (BENTONVILLE (NW), AR, US) observed 0017 UTC 16 February 2019
Temperature: 0.0°C (32°F)
Dewpoint: -3.3°C (26°F) [RH = 78%]
Pressure (altimeter): 29.89 inches Hg (1012.3 mb)
Winds: from the NE (50 degrees) at 13 MPH (11 knots; 5.7 m/s)
Visibility: 7 miles (11 km)
Ceiling: 1000 feet AGL
Clouds: broken clouds at 1000 feet AGL
overcast cloud deck at 1300 feet AGL
Weather: BR  (mist)

METAR text: KXNA 152353Z 04012KT 5SM BR OVC007 00/M03 A2988 RMK AO2 CIG 006V011 SLP125 60000 I6001 T00001028 10017 20000 53021
Conditions at: KXNA (BENTONVILLE (NW), AR, US) observed 2353 UTC 15 February 2019
Temperature: 0.0°C (32°F)
Dewpoint: -2.8°C (27°F) [RH = 81%]
Pressure (altimeter): 29.88 inches Hg (1011.9 mb)
[Sea-level pressure: 1012.5 mb]
Winds: from the NE (40 degrees) at 14 MPH (12 knots; 6.2 m/s)
Visibility: 5 miles ( 8 km)
Ceiling: 700 feet AGL
Clouds: overcast cloud deck at 700 feet AGL
Weather: BR  (mist)

METAR text: KXNA 152300Z 04011KT 5SM BR OVC009 01/M02 A2984 RMK AO2 CIG 006V011 T00061022
Conditions at: KXNA (BENTONVILLE (NW), AR, US) observed 2300 UTC 15 February 2019
Temperature: 0.6°C (33°F)
Dewpoint: -2.2°C (28°F) [RH = 81%]
Pressure (altimeter): 29.84 inches Hg (1010.6 mb)
Winds: from the NE (40 degrees) at 13 MPH (11 knots; 5.7 m/s)
Visibility: 5 miles ( 8 km)
Ceiling: 900 feet AGL
Clouds: overcast cloud deck at 900 feet AGL
Weather: BR  (mist)

METAR text: KXNA 152253Z 05008KT 4SM HZ OVC009 01/M02 A2984 RMK AO2 FZRAE2154SNB2154E02 CIG 007V011 SLP111 P0000 I1000 T00061022
Conditions at: KXNA (BENTONVILLE (NW), AR, US) observed 2253 UTC 15 February 2019
Temperature: 0.6°C (33°F)
Dewpoint: -2.2°C (28°F) [RH = 81%]
Pressure (altimeter): 29.84 inches Hg (1010.6 mb)
[Sea-level pressure: 1011.1 mb]
Winds: from the NE (50 degrees) at 9 MPH (8 knots; 4.1 m/s)
Visibility: 4 miles ( 6 km)
Ceiling: 900 feet AGL
Clouds: overcast cloud deck at 900 feet AGL
Weather: HZ  (haze)

METAR text: KXNA 152218Z 06013KT 5SM HZ OVC009 01/M03 A2982 RMK AO2 FZRAE2154SNB2154E02 CIG 007V011 P0000 I1000 T00061028
Conditions at: KXNA (BENTONVILLE (NW), AR, US) observed 2218 UTC 15 February 2019
Temperature: 0.6°C (33°F)
Dewpoint: -2.8°C (27°F) [RH = 78%]
Pressure (altimeter): 29.82 inches Hg (1009.9 mb)
Winds: from the ENE (60 degrees) at 15 MPH (13 knots; 6.7 m/s)
Visibility: 5 miles ( 8 km)
Ceiling: 900 feet AGL
Clouds: overcast cloud deck at 900 feet AGL
Weather: HZ  (haze)

METAR text: KXNA 152200Z 06009KT 3SM -SN OVC010 01/M02 A2982 RMK AO2 FZRAE2154SNB2154 CIG 007V011 P0000 I1000 T00061022
Conditions at: KXNA (BENTONVILLE (NW), AR, US) observed 2200 UTC 15 February 2019
Temperature: 0.6°C (33°F)
Dewpoint: -2.2°C (28°F) [RH = 81%]
Pressure (altimeter): 29.82 inches Hg (1009.9 mb)
Winds: from the ENE (60 degrees) at 10 MPH (9 knots; 4.6 m/s)
Visibility: 3 miles ( 5 km)
Ceiling: 1000 feet AGL
Clouds: overcast cloud deck at 1000 feet AGL
Weather: -SN  (light snow)

METAR text: KXNA 152153Z 05012KT 3SM -FZRA OVC010 01/M02 A2982 RMK AO2 UPB45E53FZRAB53 SLP106 P0000 I1001 T00061022
Conditions at: KXNA (BENTONVILLE (NW), AR, US) observed 2153 UTC 15 February 2019
Temperature: 0.6°C (33°F)
Dewpoint: -2.2°C (28°F) [RH = 81%]
Pressure (altimeter): 29.82 inches Hg (1009.9 mb)
[Sea-level pressure: 1010.6 mb]
Winds: from the NE (50 degrees) at 14 MPH (12 knots; 6.2 m/s)
Visibility: 3 miles ( 5 km)
Ceiling: 1000 feet AGL
Clouds: overcast cloud deck at 1000 feet AGL
Weather: -FZRA  (light freezing rain)

METAR text: KXNA 152053Z 05012KT 10SM OVC011 01/M02 A2981 RMK AO2 SLP102 60000 T00111022 55007
Conditions at: KXNA (BENTONVILLE (NW), AR, US) observed 2053 UTC 15 February 2019
Temperature: 1.1°C (34°F)
Dewpoint: -2.2°C (28°F) [RH = 79%]
Pressure (altimeter): 29.81 inches Hg (1009.6 mb)
[Sea-level pressure: 1010.2 mb]
Winds: from the NE (50 degrees) at 14 MPH (12 knots; 6.2 m/s)
Visibility: 10 or more miles (16+ km)
Ceiling: 1100 feet AGL
Clouds: overcast cloud deck at 1100 feet AGL
Weather: no significant weather observed at this time

METAR text: KXNA 151953Z 04012KT 10SM OVC011 01/M02 A2980 RMK AO2 UPB1857E11B30E40SNB11E12 SLP097 P0000 T00111022
Conditions at: KXNA (BENTONVILLE (NW), AR, US) observed 1953 UTC 15 February 2019
Temperature: 1.1°C (34°F)
Dewpoint: -2.2°C (28°F) [RH = 79%]
Pressure (altimeter): 29.80 inches Hg (1009.2 mb)
[Sea-level pressure: 1009.7 mb]
Winds: from the NE (40 degrees) at 14 MPH (12 knots; 6.2 m/s)
Visibility: 10 or more miles (16+ km)
Ceiling: 1100 feet AGL
Clouds: overcast cloud deck at 1100 feet AGL
Weather: no significant weather observed at this time

METAR text: KXNA 151853Z 05009KT 10SM OVC012 01/M02 A2983 RMK AO2 UPB1754E19 SLP107 P0000 T00111022
Conditions at: KXNA (BENTONVILLE (NW), AR, US) observed 1853 UTC 15 February 2019
Temperature: 1.1°C (34°F)
Dewpoint: -2.2°C (28°F) [RH = 79%]
Pressure (altimeter): 29.83 inches Hg (1010.2 mb)
[Sea-level pressure: 1010.7 mb]
Winds: from the NE (50 degrees) at 10 MPH (9 knots; 4.6 m/s)
Visibility: 10 or more miles (16+ km)
Ceiling: 1200 feet AGL
Clouds: overcast cloud deck at 1200 feet AGL
Weather: no significant weather observed at this time

METAR text: KXNA 151836Z 05013G19KT 10SM BKN012 OVC040 02/M02 A2983 RMK AO2 UPB1754E19 P0000 T00171022
Conditions at: KXNA (BENTONVILLE (NW), AR, US) observed 1836 UTC 15 February 2019
Temperature: 1.7°C (35°F)
Dewpoint: -2.2°C (28°F) [RH = 75%]
Pressure (altimeter): 29.83 inches Hg (1010.2 mb)
Winds: from the NE (50 degrees) at 15 MPH (13 knots; 6.7 m/s)
gusting to 22 MPH (19 knots; 9.8 m/s)
Visibility: 10 or more miles (16+ km)
Ceiling: 1200 feet AGL
Clouds: broken clouds at 1200 feet AGL
overcast cloud deck at 4000 feet AGL
Weather: no significant weather observed at this time

METAR text: KXNA 151753Z 05013G18KT 8SM FEW013 OVC042 01/M02 A2983 RMK AO2 RAE53 SLP109 P0001 60006 I6000 T00111022 10011 21006 50001
Conditions at: KXNA (BENTONVILLE (NW), AR, US) observed 1753 UTC 15 February 2019
Temperature: 1.1°C (34°F)
Dewpoint: -2.2°C (28°F) [RH = 79%]
Pressure (altimeter): 29.83 inches Hg (1010.2 mb)
[Sea-level pressure: 1010.9 mb]
Winds: from the NE (50 degrees) at 15 MPH (13 knots; 6.7 m/s)
gusting to 21 MPH (18 knots; 9.3 m/s)
Visibility: 8 miles (13 km)
Ceiling: 4200 feet AGL
Clouds: few clouds at 1300 feet AGL
overcast cloud deck at 4200 feet AGL
Weather: no significant weather observed at this time

METAR text: KXNA 151653Z 06012KT 8SM -RA OVC085 01/M03 A2984 RMK AO2 SLP110 P0000 T00111028
Conditions at: KXNA (BENTONVILLE (NW), AR, US) observed 1653 UTC 15 February 2019
Temperature: 1.1°C (34°F)
Dewpoint: -2.8°C (27°F) [RH = 75%]
Pressure (altimeter): 29.84 inches Hg (1010.6 mb)
[Sea-level pressure: 1011.0 mb]
Winds: from the ENE (60 degrees) at 14 MPH (12 knots; 6.2 m/s)
Visibility: 8 miles (13 km)
Ceiling: 8500 feet AGL
Clouds: overcast cloud deck at 8500 feet AGL
Weather: -RA  (light rain)

METAR text: KXNA 151553Z 07012KT 6SM -RA OVC090 01/M03 A2982 RMK AO2 RAB29FZDZE29 SLP100 P0000 I1000 T00061028
Conditions at: KXNA (BENTONVILLE (NW), AR, US) observed 1553 UTC 15 February 2019
Temperature: 0.6°C (33°F)
Dewpoint: -2.8°C (27°F) [RH = 78%]
Pressure (altimeter): 29.82 inches Hg (1009.9 mb)
[Sea-level pressure: 1010.0 mb]
Winds: from the ENE (70 degrees) at 14 MPH (12 knots; 6.2 m/s)
Visibility: 6 miles (10 km)
Ceiling: 9000 feet AGL
Clouds: overcast cloud deck at 9000 feet AGL
Weather: -RA  (light rain)

METAR text: KXNA 151529Z 10013G19KT 6SM -RA OVC090 01/M03 A2982 RMK AO2 RAB29FZDZE29 P0000 I1000 T00061028
Conditions at: KXNA (BENTONVILLE (NW), AR, US) observed 1529 UTC 15 February 2019
Temperature: 0.6°C (33°F)
Dewpoint: -2.8°C (27°F) [RH = 78%]
Pressure (altimeter): 29.82 inches Hg (1009.9 mb)
Winds: from the E (100 degrees) at 15 MPH (13 knots; 6.7 m/s)
gusting to 22 MPH (19 knots; 9.8 m/s)
Visibility: 6 miles (10 km)
Ceiling: 9000 feet AGL
Clouds: overcast cloud deck at 9000 feet AGL
Weather: -RA  (light rain)

METAR text: KXNA 151453Z 08012KT 5SM -FZDZ OVC085 01/M03 A2983 RMK AO2 UPB47E48FZRAE47FZDZB48 SLP103 P0002 60005 I1000 I3000 T00061033 58018
Conditions at: KXNA (BENTONVILLE (NW), AR, US) observed 1453 UTC 15 February 2019
Temperature: 0.6°C (33°F)
Dewpoint: -3.3°C (26°F) [RH = 75%]
Pressure (altimeter): 29.83 inches Hg (1010.2 mb)
[Sea-level pressure: 1010.3 mb]
Winds: from the E (80 degrees) at 14 MPH (12 knots; 6.2 m/s)
Visibility: 5 miles ( 8 km)
Ceiling: 8500 feet AGL
Clouds: overcast cloud deck at 8500 feet AGL
Weather: -FZDZ  (light freezing drizzle)

METAR text: KXNA 151448Z 08012KT 5SM -FZDZ FEW070 OVC090 00/M03 A2983 RMK AO2 UPB47E48FZRAE47FZDZB48 P0002 I1000
Conditions at: KXNA (BENTONVILLE (NW), AR, US) observed 1448 UTC 15 February 2019
Temperature: 0.0°C (32°F)
Dewpoint: -3.0°C (27°F) [RH = 80%]
Pressure (altimeter): 29.83 inches Hg (1010.2 mb)
Winds: from the E (80 degrees) at 14 MPH (12 knots; 6.2 m/s)
Visibility: 5 miles ( 8 km)
Ceiling: 9000 feet AGL
Clouds: few clouds at 7000 feet AGL
overcast cloud deck at 9000 feet AGL
Weather: -FZDZ  (light freezing drizzle)

METAR text: KXNA 151353Z 05011G18KT 4SM -FZRA OVC060 00/M04 A2986 RMK AO2 UPE50FZRAB52SNB1254E09B10E14B19E29B50E52 SLP114 P0002 I1000 T00001039
Conditions at: KXNA (BENTONVILLE (NW), AR, US) observed 1353 UTC 15 February 2019
Temperature: 0.0°C (32°F)
Dewpoint: -3.9°C (25°F) [RH = 75%]
Pressure (altimeter): 29.86 inches Hg (1011.3 mb)
[Sea-level pressure: 1011.4 mb]
Winds: from the NE (50 degrees) at 13 MPH (11 knots; 5.7 m/s)
gusting to 21 MPH (18 knots; 9.3 m/s)
Visibility: 4 miles ( 6 km)
Ceiling: 6000 feet AGL
Clouds: overcast cloud deck at 6000 feet AGL
Weather: -FZRA  (light freezing rain)

METAR text: KXNA 151253Z 04013KT 5SM UP OVC065 00/M04 A2988 RMK AO2 UPB24SNB37E46 SLP120 P0001 I1000 T00001039
Conditions at: KXNA (BENTONVILLE (NW), AR, US) observed 1253 UTC 15 February 2019
Temperature: 0.0°C (32°F)
Dewpoint: -3.9°C (25°F) [RH = 75%]
Pressure (altimeter): 29.88 inches Hg (1011.9 mb)
[Sea-level pressure: 1012.0 mb]
Winds: from the NE (40 degrees) at 15 MPH (13 knots; 6.7 m/s)
Visibility: 5 miles ( 8 km)
Ceiling: 6500 feet AGL
Clouds: overcast cloud deck at 6500 feet AGL
Weather: UP  (unknown precipitation)

METAR text: KXNA 151153Z 03010KT 6SM HZ OVC110 00/M04 A2988 RMK AO2 SLP121 T00001044 10011 21006 58002
Conditions at: KXNA (BENTONVILLE (NW), AR, US) observed 1153 UTC 15 February 2019
Temperature: 0.0°C (32°F)
Dewpoint: -4.4°C (24°F) [RH = 72%]
Pressure (altimeter): 29.88 inches Hg (1011.9 mb)
[Sea-level pressure: 1012.1 mb]
Winds: from the NNE (30 degrees) at 12 MPH (10 knots; 5.1 m/s)
Visibility: 6 miles (10 km)
Ceiling: 11000 feet AGL
Clouds: overcast cloud deck at 11000 feet AGL
Weather: HZ  (haze)

METAR text: KXNA 151118Z 05007KT 5SM HZ SCT120 00/M04 A2989 RMK AO2 T00001039
Conditions at: KXNA (BENTONVILLE (NW), AR, US) observed 1118 UTC 15 February 2019
Temperature: 0.0°C (32°F)
Dewpoint: -3.9°C (25°F) [RH = 75%]
Pressure (altimeter): 29.89 inches Hg (1012.3 mb)
Winds: from the NE (50 degrees) at 8 MPH (7 knots; 3.6 m/s)
Visibility: 5 miles ( 8 km)
Ceiling: at least 12,000 feet AGL
Clouds: scattered clouds at 12000 feet AGL
Weather: HZ  (haze)

METAR text: KXNA 151053Z AUTO 04008KT 5SM HZ FEW120 00/M04 A2989 RMK AO2 SLP122 T00001039
Conditions at: KXNA (BENTONVILLE (NW), AR, US) observed 1053 UTC 15 February 2019
Temperature: 0.0°C (32°F)
Dewpoint: -3.9°C (25°F) [RH = 75%]
Pressure (altimeter): 29.89 inches Hg (1012.3 mb)
[Sea-level pressure: 1012.2 mb]
Winds: from the NE (40 degrees) at 9 MPH (8 knots; 4.1 m/s)
Visibility: 5 miles ( 8 km)
Ceiling: at least 12,000 feet AGL
Clouds: few clouds at 12000 feet AGL
Weather: HZ  (haze)

METAR text: KXNA 150953Z AUTO 05008KT 6SM HZ SCT009 00/M04 A2989 RMK AO2 SLP121 T00001044
Conditions at: KXNA (BENTONVILLE (NW), AR, US) observed 0953 UTC 15 February 2019
Temperature: 0.0°C (32°F)
Dewpoint: -4.4°C (24°F) [RH = 72%]
Pressure (altimeter): 29.89 inches Hg (1012.3 mb)
[Sea-level pressure: 1012.1 mb]
Winds: from the NE (50 degrees) at 9 MPH (8 knots; 4.1 m/s)
Visibility: 6 miles (10 km)
Ceiling: at least 12,000 feet AGL
Clouds: scattered clouds at 900 feet AGL
Weather: HZ  (haze)

METAR text: KXNA 150942Z AUTO 05009KT 6SM HZ SCT009 00/M04 A2990 RMK AO2 T00001044
Conditions at: KXNA (BENTONVILLE (NW), AR, US) observed 0942 UTC 15 February 2019
Temperature: 0.0°C (32°F)
Dewpoint: -4.4°C (24°F) [RH = 72%]
Pressure (altimeter): 29.90 inches Hg (1012.6 mb)
Winds: from the NE (50 degrees) at 10 MPH (9 knots; 4.6 m/s)
Visibility: 6 miles (10 km)
Ceiling: at least 12,000 feet AGL
Clouds: scattered clouds at 900 feet AGL
Weather: HZ  (haze)

Forecast for: KXNA (BENTONVILLE (NW), AR, US)
Text: KXNA 161720Z 1618/1718 09009KT P6SM OVC007
Forecast period: 1800 to 2100 UTC 16 February 2019
Forecast type: FROM: standard forecast or significant change
Winds: from the E (90 degrees) at 10 MPH (9 knots; 4.6 m/s)
Visibility: 6 or more miles 10+ km)
Ceiling: 700 feet AGL
Clouds: overcast cloud deck at 700 feet AGL
Weather: no significant weather forecast for this period
Text: FM162100 12009KT P6SM OVC015
Forecast period: 2100 UTC 16 February 2019 to 0400 UTC 17 February 2019
Forecast type: FROM: standard forecast or significant change
Winds: from the ESE (120 degrees) at 10 MPH (9 knots; 4.6 m/s)
Visibility: 6 or more miles 10+ km)
Ceiling: 1500 feet AGL
Clouds: overcast cloud deck at 1500 feet AGL
Weather: no significant weather forecast for this period
Text: FM170400 VRB04KT 4SM BR OVC007
Forecast period: 0400 to 1600 UTC 17 February 2019
Forecast type: FROM: standard forecast or significant change
Winds: variable direction winds at 5 MPH (4 knots; 2.1 m/s)
Visibility: 4 miles (6 km)
Ceiling: 700 feet AGL
Clouds: overcast cloud deck at 700 feet AGL
Weather: BR  (mist)
Text: FM171600 32010KT P6SM OVC015
Forecast period: 1600 to 1800 UTC 17 February 2019
Forecast type: FROM: standard forecast or significant change
Winds: from the NW (320 degrees) at 12 MPH (10 knots; 5.1 m/s)
Visibility: 6 or more miles 10+ km)
Ceiling: 1500 feet AGL
Clouds: overcast cloud deck at 1500 feet AGL
Weather: no significant weather forecast for this period